Nebo, NC

9:19 PM EDT on March 27, 2015 (GMT -0400)
Hickory Regional | | Change Station
CLOSE
Current Station
Airport
Location: Hickory,
Elevation: 1188 ft
Nearby Weather Stations

Elev 1188 ft 35.74 °N, 81.38 °W | Updated 26 minutes ago

Mostly Cloudy
Mostly Cloudy
44 °F
Feels Like 42 °F
N
5
Wind Variable Wind from NNW

Today
High -- | Low -- °F
--% Chance of Precip.
Yesterday
High -- | Low -- °F
Precip. -- in
7:21 AM 7:45 PM
First Quarter, 57% visible
Pressure 29.80 in
Visibility 10.0 miles
Clouds Clear
Windchill 42 °F
Dew Point 24 °F
Humidity 45%
Rainfall 0.12 in
Snow Depth Not available.
UV 0 out of 12
Pollen 8.30 out of 12
Air Quality Not available.
Flu Activity Not available.
METAR KHKY 280053Z AUTO 33004KT 10SM CLR 07/M04 A2982 RMK AO2 SLP089 T00671044

More Conditions Fewer Conditions

Pressure 29.80 in
Visibility 10.0 miles
Clouds Clear
Windchill 42 °F
Dew Point 24 °F
Humidity 45%
Rainfall 0.12 in
Snow Depth Not available.
UV 0 out of 12
Pollen 8.30 out of 12
Air Quality Not available.
Flu Activity Not available.
METAR KHKY 280053Z AUTO 33004KT 10SM CLR 07/M04 A2982 RMK AO2 SLP089 T00671044

More Conditions Fewer Conditions

10-Day Weather Forecast

Almanac

Astronomy

Mar. 27, 2015 Rise Set
Actual Time
Civil Twilight
Nautical Twilight
Astronomical Twilight
Moon
Length of Visible Light
Length of Day
Tomorrow will be .
, % of the Moon is Illuminated

Today's Extremes

State Highs State Lows

Community

WunderPhotos

Upload Photos

1,808,905 photos uploaded!

WunderBlogs® & News

Nearby

Air Quality

  Air Quality AQ Index Pollutant
Not available.

Snow Depth

Station Depth Elevation

Earthquake Activity

City Distance Mag. Time & Date
Minimum magnitude displayed is 2.5.

Coastal Water Temperatures

Place Temperature

Stations

Nearby Weather Stations

Station Location Temp. Windchill Dew Point Humidity Wind Precip. Elev Updated Type
                   
Freeze Watch, Freeze Warning
Statement as of 6:54 PM EDT on March 27, 2015

... Freeze warning remains in effect from midnight tonight to noon
EDT Saturday...
... Freeze watch in effect from late Saturday night through Sunday
morning...

The National Weather Service in Greenville-Spartanburg has issued
a freeze watch... which is in effect from late Saturday night
through Sunday morning.

* Locations... portions of the North Carolina foothills and Piedmont.

* Temperatures... lows tonight in the low 30s... and Saturday night
from the middle 20s to around 30.

* Impacts... very cold temperatures will kill sensitive
vegetation that has already started to grow this season.

Precautionary/preparedness actions...

A freeze watch means sub-freezing temperatures are possible.
These conditions could kill crops and other sensitive vegetation.